Tennerton, West Virginia
Current Conditions -  °F | °C
As of 5:15 PM on Thursday 18 Dec 2014 (Local Time) from KW22 Reporting Station
Overcast Overcast  
Wind Chill: 27°   Ceiling: 1600
Heat Index: 27°   Visibility: 10mi
Dew Point: 19°   Wind: 0mph
Humidity: 74%   Direction: NA
Pressure: 30.13"   Gusts: NA
Location:  38.998°N, 80.2065°W
Report Text: KW22 182215Z AUTO 00000KT 10SM OVC016 M03/M07 A3013 RMK AO2
Loading
Personal Weather Stations






























Interactive Weather Map New forecast layout! Learn more

10-Day Weather Forecast

Advertisements
Track Severe Weather on mobile